Deva — A8OK3 — position and weather

sailwx.info

Track history (hours):
 
Tides and Currents Weather Stations Pressure Air Temp Water Temp Dewpoint Dewpoint Depression Visibility Wind Speed Wind Dir Waves Ship Positions

Deva

Last reported at 2016-Aug-23 21:30 UTC. Time now 2016-Aug-29 23:31 UTC.
Position N 31°24' E 032°18'.

Length 259 m; draft 12.6 m.

Type: Ship (hazmat cat A). MMSI: 636013644.

Date/timePositionNaut miles runAvg speedWind from/ knotsBaromVisibWave heightAir tempDewpointWater temp
2016-Aug-23 21:30N 31°24' E 032°18'0 0.0
2016-Aug-23 20:16N 31°24' E 032°18'0 0.0
2016-Aug-23 19:24N 31°24' E 032°18'1 0.3
2016-Aug-23 17:16N 31°24' E 032°19'6 7.9
2016-Aug-23 16:33N 31°29' E 032°21'2210.9
2016-Aug-23 14:32N 31°47' E 032°36'1512.2
2016-Aug-23 13:20N 32°01' E 032°42'1012.3
2016-Aug-23 12:34N 32°10' E 032°47'5312.4
2016-Aug-23 08:16N 32°58' E 033°14'912.4
2016-Aug-23 07:33N 33°06' E 033°18'1412.5
2016-Aug-23 06:25N 33°19' E 033°25'1112.5
2016-Aug-23 05:33N 33°28' E 033°31'1212.2
2016-Aug-23 04:33N 33°40' E 033°37'3611.8
2016-Aug-23 01:33N 34°12' E 033°55'1611.9
2016-Aug-23 00:12N 34°26' E 034°03'812.0
2016-Aug-22 23:33N 34°33' E 034°08'1212.0
2016-Aug-22 22:33N 34°44' E 034°14'1312.1
2016-Aug-22 21:31N 34°56' E 034°20'1212.5
2016-Aug-22 20:33N 35°06' E 034°26'1312.5
2016-Aug-22 19:33N 35°18' E 034°32'1212.5
2016-Aug-22 18:33N 35°29' E 034°38'79 4.1
2016-Aug-21 23:31N 36°48' E 034°38'58 1.9
2016-Aug-20 16:12N 35°50' E 034°50'812.2
2016-Aug-20 15:33N 35°43' E 034°46'1212.0
2016-Aug-20 14:33N 35°32' E 034°40'1211.9
2016-Aug-20 13:34N 35°21' E 034°34'2512.2
2016-Aug-20 11:33N 34°59' E 034°22'1212.2
2016-Aug-20 10:32N 34°48' E 034°15'1414.7
2016-Aug-20 09:33N 34°38' E 034°02'1818.0
2016-Aug-20 08:33N 34°27' E 033°45'1717.3
2016-Aug-20 07:33N 34°15' E 033°29'1717.3
2016-Aug-20 06:33N 34°04' E 033°14'1717.3
2016-Aug-20 05:33N 33°52' E 032°58'1716.9
2016-Aug-20 04:34N 33°41' E 032°43'1716.9
2016-Aug-20 03:33N 33°30' E 032°28'2016.8
2016-Aug-20 02:24N 33°17' E 032°10'1416.4
2016-Aug-20 01:33N 33°08' E 031°58'2016.7
2016-Aug-20 00:22N 32°55' E 031°40'1416.7
2016-Aug-19 23:33N 32°46' E 031°28'1716.6
2016-Aug-19 22:33N 32°34' E 031°13'3416.5
2016-Aug-19 20:31N 32°13' E 030°43'1616.7
2016-Aug-19 19:34N 32°02' E 030°29'5416.8
2016-Aug-19 16:22N 31°20' E 029°50'1112.0
2016-Aug-19 15:28N 31°09' E 029°48'1 0.1
2016-Aug-19 05:29N 31°09' E 029°48'0 0.0
2016-Aug-19 01:14N 31°09' E 029°48'0 0.0
2016-Aug-19 00:32N 31°09' E 029°48'0 0.0
2016-Aug-18 23:26N 31°09' E 029°48'0 0.0
2016-Aug-18 20:14N 31°09' E 029°48'1 0.9
2016-Aug-18 19:33N 31°09' E 029°48'8 8.0
2016-Aug-18 18:33N 31°17' E 029°50'1515.0
2016-Aug-18 17:33N 31°30' E 029°58'8416.8
2016-Aug-18 12:33N 31°57' E 031°32'2216.8
2016-Aug-18 11:15N 32°02' E 031°57'1116.1
2016-Aug-18 10:33N 32°02' E 032°10'1616.2
2016-Aug-18 09:33N 32°04' E 032°29'5817.0
2016-Aug-18 06:09N 32°07' E 033°37'54 2.0
2016-Aug-17 03:08N 31°51' E 034°38'11 6.9
2016-Aug-17 01:34N 32°01' E 034°32'1817.9
2016-Aug-17 00:34N 32°18' E 034°38'1817.9
2016-Aug-16 23:34N 32°35' E 034°44'1717.2
2016-Aug-16 22:34N 32°51' E 034°51'9 8.8
2016-Aug-16 21:33N 32°49' E 035°01'0 0.0
2016-Aug-16 20:31N 32°49' E 035°01'0 0.0
2016-Aug-16 19:31N 32°49' E 035°01'0 0.0
2016-Aug-16 18:31N 32°49' E 035°01'0 0.0
2016-Aug-16 17:31N 32°49' E 035°01'0 0.0
2016-Aug-16 16:31N 32°49' E 035°01'0 0.0
2016-Aug-16 15:31N 32°49' E 035°01'0 0.0
2016-Aug-16 14:34N 32°49' E 035°01'0 0.0
2016-Aug-16 13:33N 32°49' E 035°01'0 0.0
2016-Aug-16 12:33N 32°49' E 035°01'0 0.0
2016-Aug-16 11:33N 32°49' E 035°01'0 0.0
2016-Aug-16 10:33N 32°49' E 035°01'0 0.0
2016-Aug-16 09:33N 32°49' E 035°01'0 0.0
2016-Aug-16 08:33N 32°49' E 035°01'0 0.0
2016-Aug-16 07:33N 32°49' E 035°01'0 0.0
2016-Aug-16 06:33N 32°49' E 035°01'0 0.0
2016-Aug-16 04:33N 32°49' E 035°01'0 0.0
2016-Aug-16 03:33N 32°49' E 035°01'1 0.9
2016-Aug-16 02:33N 32°50' E 035°01'4 4.4
2016-Aug-16 01:33N 32°52' E 034°57'1312.9
2016-Aug-16 00:33N 32°55' E 034°42'  
Track history (hours):
 
Tides and Currents Weather Stations Pressure Air Temp Water Temp Dewpoint Dewpoint Depression Visibility Wind Speed Wind Dir Waves Ship Positions

Deva

Last reported at 2016-Aug-23 21:30 UTC. Time now 2016-Aug-29 23:31 UTC.
Position N 31°24' E 032°18'.

Length 259 m; draft 12.6 m.

Type: Ship (hazmat cat A). MMSI: 636013644.

Date/timePositionNaut miles runAvg speedWind from/ knotsBaromVisibWave heightAir tempDewpointWater temp
2016-Aug-23 21:30N 31°24' E 032°18'0 0.0
2016-Aug-23 20:16N 31°24' E 032°18'0 0.0
2016-Aug-23 19:24N 31°24' E 032°18'1 0.3
2016-Aug-23 17:16N 31°24' E 032°19'6 7.9
2016-Aug-23 16:33N 31°29' E 032°21'2210.9
2016-Aug-23 14:32N 31°47' E 032°36'1512.2
2016-Aug-23 13:20N 32°01' E 032°42'1012.3
2016-Aug-23 12:34N 32°10' E 032°47'5312.4
2016-Aug-23 08:16N 32°58' E 033°14'912.4
2016-Aug-23 07:33N 33°06' E 033°18'1412.5
2016-Aug-23 06:25N 33°19' E 033°25'1112.5
2016-Aug-23 05:33N 33°28' E 033°31'1212.2
2016-Aug-23 04:33N 33°40' E 033°37'3611.8
2016-Aug-23 01:33N 34°12' E 033°55'1611.9
2016-Aug-23 00:12N 34°26' E 034°03'812.0
2016-Aug-22 23:33N 34°33' E 034°08'1212.0
2016-Aug-22 22:33N 34°44' E 034°14'1312.1
2016-Aug-22 21:31N 34°56' E 034°20'1212.5
2016-Aug-22 20:33N 35°06' E 034°26'1312.5
2016-Aug-22 19:33N 35°18' E 034°32'1212.5
2016-Aug-22 18:33N 35°29' E 034°38'79 4.1
2016-Aug-21 23:31N 36°48' E 034°38'58 1.9
2016-Aug-20 16:12N 35°50' E 034°50'812.2
2016-Aug-20 15:33N 35°43' E 034°46'1212.0
2016-Aug-20 14:33N 35°32' E 034°40'1211.9
2016-Aug-20 13:34N 35°21' E 034°34'2512.2
2016-Aug-20 11:33N 34°59' E 034°22'1212.2
2016-Aug-20 10:32N 34°48' E 034°15'1414.7
2016-Aug-20 09:33N 34°38' E 034°02'1818.0
2016-Aug-20 08:33N 34°27' E 033°45'1717.3
2016-Aug-20 07:33N 34°15' E 033°29'1717.3
2016-Aug-20 06:33N 34°04' E 033°14'1717.3
2016-Aug-20 05:33N 33°52' E 032°58'1716.9
2016-Aug-20 04:34N 33°41' E 032°43'1716.9
2016-Aug-20 03:33N 33°30' E 032°28'2016.8
2016-Aug-20 02:24N 33°17' E 032°10'1416.4
2016-Aug-20 01:33N 33°08' E 031°58'2016.7
2016-Aug-20 00:22N 32°55' E 031°40'1416.7
2016-Aug-19 23:33N 32°46' E 031°28'1716.6
2016-Aug-19 22:33N 32°34' E 031°13'3416.5
2016-Aug-19 20:31N 32°13' E 030°43'1616.7
2016-Aug-19 19:34N 32°02' E 030°29'5416.8
2016-Aug-19 16:22N 31°20' E 029°50'1112.0
2016-Aug-19 15:28N 31°09' E 029°48'1 0.1
2016-Aug-19 05:29N 31°09' E 029°48'0 0.0
2016-Aug-19 01:14N 31°09' E 029°48'0 0.0
2016-Aug-19 00:32N 31°09' E 029°48'0 0.0
2016-Aug-18 23:26N 31°09' E 029°48'0 0.0
2016-Aug-18 20:14N 31°09' E 029°48'1 0.9
2016-Aug-18 19:33N 31°09' E 029°48'8 8.0
2016-Aug-18 18:33N 31°17' E 029°50'1515.0
2016-Aug-18 17:33N 31°30' E 029°58'8416.8
2016-Aug-18 12:33N 31°57' E 031°32'2216.8
2016-Aug-18 11:15N 32°02' E 031°57'1116.1
2016-Aug-18 10:33N 32°02' E 032°10'1616.2
2016-Aug-18 09:33N 32°04' E 032°29'5817.0
2016-Aug-18 06:09N 32°07' E 033°37'54 2.0
2016-Aug-17 03:08N 31°51' E 034°38'11 6.9
2016-Aug-17 01:34N 32°01' E 034°32'1817.9
2016-Aug-17 00:34N 32°18' E 034°38'1817.9
2016-Aug-16 23:34N 32°35' E 034°44'1717.2
2016-Aug-16 22:34N 32°51' E 034°51'9 8.8
2016-Aug-16 21:33N 32°49' E 035°01'0 0.0
2016-Aug-16 20:31N 32°49' E 035°01'0 0.0
2016-Aug-16 19:31N 32°49' E 035°01'0 0.0
2016-Aug-16 18:31N 32°49' E 035°01'0 0.0
2016-Aug-16 17:31N 32°49' E 035°01'0 0.0
2016-Aug-16 16:31N 32°49' E 035°01'0 0.0
2016-Aug-16 15:31N 32°49' E 035°01'0 0.0
2016-Aug-16 14:34N 32°49' E 035°01'0 0.0
2016-Aug-16 13:33N 32°49' E 035°01'0 0.0
2016-Aug-16 12:33N 32°49' E 035°01'0 0.0
2016-Aug-16 11:33N 32°49' E 035°01'0 0.0
2016-Aug-16 10:33N 32°49' E 035°01'0 0.0
2016-Aug-16 09:33N 32°49' E 035°01'0 0.0
2016-Aug-16 08:33N 32°49' E 035°01'0 0.0
2016-Aug-16 07:33N 32°49' E 035°01'0 0.0
2016-Aug-16 06:33N 32°49' E 035°01'0 0.0
2016-Aug-16 04:33N 32°49' E 035°01'0 0.0
2016-Aug-16 03:33N 32°49' E 035°01'1 0.9
2016-Aug-16 02:33N 32°50' E 035°01'4 4.4
2016-Aug-16 01:33N 32°52' E 034°57'1312.9
2016-Aug-16 00:33N 32°55' E 034°42'  

Dump ship's entire track history